sensor_id;sensor_type;location;lat;lon;timestamp;pressure;altitude;pressure_sealevel;temperature;humidity
71457;BME280;59263;48.160;11.752;2022-09-09T00:10:22;95667.38;;;13.90;100.00
71457;BME280;59263;48.160;11.752;2022-09-09T00:13:16;95679.28;;;13.84;100.00
71457;BME280;59263;48.160;11.752;2022-09-09T00:15:57;95675.22;;;13.82;100.00
71457;BME280;59263;48.160;11.752;2022-09-09T00:18:29;95671.66;;;13.74;100.00
71457;BME280;59263;48.160;11.752;2022-09-09T00:23:29;95669.09;;;13.66;100.00
71457;BME280;59263;48.160;11.752;2022-09-09T00:26:07;95673.47;;;13.66;100.00
71457;BME280;59263;48.160;11.752;2022-09-09T00:28:39;95673.97;;;13.69;100.00
71457;BME280;59263;48.160;11.752;2022-09-09T00:31:15;95675.41;;;13.64;100.00
71457;BME280;59263;48.160;11.752;2022-09-09T00:33:43;95674.78;;;13.62;100.00
71457;BME280;59263;48.160;11.752;2022-09-09T00:36:18;95674.78;;;13.62;100.00
71457;BME280;59263;48.160;11.752;2022-09-09T00:38:48;95673.13;;;13.61;100.00
71457;BME280;59263;48.160;11.752;2022-09-09T00:44:03;95673.50;;;13.58;100.00
71457;BME280;59263;48.160;11.752;2022-09-09T00:46:53;95664.53;;;13.60;100.00
71457;BME280;59263;48.160;11.752;2022-09-09T00:49:38;95668.78;;;13.61;100.00
71457;BME280;59263;48.160;11.752;2022-09-09T00:55:04;95677.19;;;13.71;100.00
71457;BME280;59263;48.160;11.752;2022-09-09T00:57:33;95672.97;;;13.70;100.00
71457;BME280;59263;48.160;11.752;2022-09-09T01:03:11;95670.69;;;13.84;100.00
71457;BME280;59263;48.160;11.752;2022-09-09T01:05:55;95672.63;;;13.82;100.00
71457;BME280;59263;48.160;11.752;2022-09-09T01:11:12;95678.81;;;13.80;100.00
71457;BME280;59263;48.160;11.752;2022-09-09T01:13:41;95672.63;;;13.82;100.00
71457;BME280;59263;48.160;11.752;2022-09-09T01:16:11;95677.50;;;13.85;100.00
71457;BME280;59263;48.160;11.752;2022-09-09T01:18:46;95669.03;;;13.83;100.00
71457;BME280;59263;48.160;11.752;2022-09-09T01:21:22;95667.91;;;13.85;100.00
71457;BME280;59263;48.160;11.752;2022-09-09T01:27:00;95670.97;;;13.89;100.00
71457;BME280;59263;48.160;11.752;2022-09-09T01:29:26;95671.63;;;13.91;100.00
71457;BME280;59263;48.160;11.752;2022-09-09T01:32:35;95669.66;;;13.93;100.00
71457;BME280;59263;48.160;11.752;2022-09-09T01:34:47;95664.78;;;13.90;100.00
71457;BME280;59263;48.160;11.752;2022-09-09T01:37:13;95671.28;;;13.94;100.00
71457;BME280;59263;48.160;11.752;2022-09-09T01:39:40;95667.88;;;13.93;100.00
71457;BME280;59263;48.160;11.752;2022-09-09T01:42:09;95666.69;;;14.04;100.00
71457;BME280;59263;48.160;11.752;2022-09-09T01:44:36;95665.38;;;14.08;100.00
71457;BME280;59263;48.160;11.752;2022-09-09T01:47:03;95673.19;;;14.08;100.00
71457;BME280;59263;48.160;11.752;2022-09-09T01:49:29;95675.97;;;14.07;100.00
71457;BME280;59263;48.160;11.752;2022-09-09T01:51:55;95662.44;;;14.11;100.00
71457;BME280;59263;48.160;11.752;2022-09-09T01:54:23;95671.16;;;14.26;100.00
71457;BME280;59263;48.160;11.752;2022-09-09T01:56:54;95667.56;;;14.27;100.00
71457;BME280;59263;48.160;11.752;2022-09-09T02:02:10;95663.78;;;14.38;100.00
71457;BME280;59263;48.160;11.752;2022-09-09T02:04:38;95669.19;;;14.37;100.00
71457;BME280;59263;48.160;11.752;2022-09-09T02:07:11;95667.84;;;14.41;100.00
71457;BME280;59263;48.160;11.752;2022-09-09T02:09:40;95661.66;;;14.42;100.00
71457;BME280;59263;48.160;11.752;2022-09-09T02:12:11;95666.19;;;14.48;100.00
71457;BME280;59263;48.160;11.752;2022-09-09T02:14:41;95663.59;;;14.48;100.00
71457;BME280;59263;48.160;11.752;2022-09-09T02:17:11;95666.88;;;14.50;100.00
71457;BME280;59263;48.160;11.752;2022-09-09T02:19:42;95657.56;;;14.47;100.00
71457;BME280;59263;48.160;11.752;2022-09-09T02:22:10;95657.09;;;14.44;100.00
71457;BME280;59263;48.160;11.752;2022-09-09T02:24:39;95655.00;;;14.39;100.00
71457;BME280;59263;48.160;11.752;2022-09-09T02:27:06;95651.13;;;14.35;100.00
71457;BME280;59263;48.160;11.752;2022-09-09T02:29:40;95654.88;;;14.33;100.00
71457;BME280;59263;48.160;11.752;2022-09-09T02:32:14;95658.47;;;14.32;100.00
71457;BME280;59263;48.160;11.752;2022-09-09T02:34:43;95661.69;;;14.34;100.00
71457;BME280;59263;48.160;11.752;2022-09-09T02:37:10;95648.41;;;14.28;100.00
71457;BME280;59263;48.160;11.752;2022-09-09T02:39:37;95655.03;;;14.31;100.00
71457;BME280;59263;48.160;11.752;2022-09-09T02:42:03;95658.94;;;14.35;100.00
71457;BME280;59263;48.160;11.752;2022-09-09T02:44:29;95658.00;;;14.28;100.00
71457;BME280;59263;48.160;11.752;2022-09-09T02:52:47;95653.88;;;14.34;100.00
71457;BME280;59263;48.160;11.752;2022-09-09T02:55:23;95648.72;;;14.25;100.00
71457;BME280;59263;48.160;11.752;2022-09-09T02:57:52;95645.47;;;14.32;100.00
71457;BME280;59263;48.160;11.752;2022-09-09T03:00:24;95651.16;;;14.27;100.00
71457;BME280;59263;48.160;11.752;2022-09-09T03:02:50;95652.31;;;14.24;100.00
71457;BME280;59263;48.160;11.752;2022-09-09T03:05:16;95649.06;;;14.22;100.00
71457;BME280;59263;48.160;11.752;2022-09-09T03:07:41;95654.28;;;14.22;100.00
71457;BME280;59263;48.160;11.752;2022-09-09T03:10:07;95656.25;;;14.20;100.00
71457;BME280;59263;48.160;11.752;2022-09-09T03:12:33;95649.06;;;14.22;100.00
71457;BME280;59263;48.160;11.752;2022-09-09T03:14:58;95641.53;;;14.27;100.00
71457;BME280;59263;48.160;11.752;2022-09-09T03:17:24;95638.78;;;14.29;100.00
71457;BME280;59263;48.160;11.752;2022-09-09T03:19:49;95635.66;;;14.34;100.00
71457;BME280;59263;48.160;11.752;2022-09-09T03:22:17;95649.09;;;14.45;100.00
71457;BME280;59263;48.160;11.752;2022-09-09T03:24:42;95645.06;;;14.43;100.00
71457;BME280;59263;48.160;11.752;2022-09-09T03:27:07;95635.81;;;14.40;100.00
71457;BME280;59263;48.160;11.752;2022-09-09T03:29:33;95642.47;;;14.43;100.00
71457;BME280;59263;48.160;11.752;2022-09-09T03:31:59;95652.38;;;14.47;100.00
71457;BME280;59263;48.160;11.752;2022-09-09T03:34:24;95639.88;;;14.43;100.00
71457;BME280;59263;48.160;11.752;2022-09-09T03:36:49;95637.88;;;14.45;100.00
71457;BME280;59263;48.160;11.752;2022-09-09T03:39:15;95631.06;;;14.44;100.00
71457;BME280;59263;48.160;11.752;2022-09-09T03:41:40;95626.38;;;14.39;100.00
71457;BME280;59263;48.160;11.752;2022-09-09T03:44:06;95624.25;;;14.43;100.00
71457;BME280;59263;48.160;11.752;2022-09-09T03:46:31;95631.59;;;14.39;100.00
71457;BME280;59263;48.160;11.752;2022-09-09T03:48:57;95630.19;;;14.28;100.00
71457;BME280;59263;48.160;11.752;2022-09-09T03:51:22;95631.13;;;14.27;100.00
71457;BME280;59263;48.160;11.752;2022-09-09T03:53:47;95627.56;;;14.28;100.00
71457;BME280;59263;48.160;11.752;2022-09-09T03:56:13;95627.72;;;14.27;100.00
71457;BME280;59263;48.160;11.752;2022-09-09T03:58:39;95636.00;;;14.31;100.00
71457;BME280;59263;48.160;11.752;2022-09-09T04:01:12;95630.50;;;14.25;100.00
71457;BME280;59263;48.160;11.752;2022-09-09T04:03:38;95636.69;;;14.24;100.00
71457;BME280;59263;48.160;11.752;2022-09-09T04:06:05;95630.84;;;14.22;100.00
71457;BME280;59263;48.160;11.752;2022-09-09T04:08:32;95635.44;;;14.20;100.00
71457;BME280;59263;48.160;11.752;2022-09-09T04:10:58;95637.38;;;14.18;100.00
71457;BME280;59263;48.160;11.752;2022-09-09T04:13:24;95634.81;;;14.10;100.00
71457;BME280;59263;48.160;11.752;2022-09-09T04:15:54;95632.53;;;14.07;100.00
71457;BME280;59263;48.160;11.752;2022-09-09T04:18:20;95634.94;;;14.17;100.00
71457;BME280;59263;48.160;11.752;2022-09-09T04:20:47;95623.97;;;14.29;100.00
71457;BME280;59263;48.160;11.752;2022-09-09T04:23:13;95620.63;;;14.21;100.00
71457;BME280;59263;48.160;11.752;2022-09-09T04:25:44;95617.88;;;14.14;100.00
71457;BME280;59263;48.160;11.752;2022-09-09T04:28:09;95618.88;;;14.13;100.00
71457;BME280;59263;48.160;11.752;2022-09-09T04:30:35;95623.72;;;14.16;100.00
71457;BME280;59263;48.160;11.752;2022-09-09T04:33:01;95617.88;;;14.14;100.00
71457;BME280;59263;48.160;11.752;2022-09-09T04:35:26;95618.22;;;14.11;100.00
71457;BME280;59263;48.160;11.752;2022-09-09T04:37:52;95609.41;;;14.12;100.00
71457;BME280;59263;48.160;11.752;2022-09-09T04:40:17;95610.41;;;14.11;100.00
71457;BME280;59263;48.160;11.752;2022-09-09T04:42:42;95606.34;;;14.09;100.00
71457;BME280;59263;48.160;11.752;2022-09-09T04:45:09;95605.88;;;14.05;100.00
71457;BME280;59263;48.160;11.752;2022-09-09T04:47:36;95612.72;;;14.06;100.00
71457;BME280;59263;48.160;11.752;2022-09-09T04:50:01;95606.38;;;14.00;100.00
71457;BME280;59263;48.160;11.752;2022-09-09T04:52:27;95618.59;;;14.00;100.00
71457;BME280;59263;48.160;11.752;2022-09-09T04:54:52;95617.13;;;14.06;100.00
71457;BME280;59263;48.160;11.752;2022-09-09T04:57:19;95622.81;;;14.01;100.00
71457;BME280;59263;48.160;11.752;2022-09-09T04:59:44;95618.06;;;14.04;100.00
71457;BME280;59263;48.160;11.752;2022-09-09T05:02:11;95613.06;;;14.03;100.00
71457;BME280;59263;48.160;11.752;2022-09-09T05:04:36;95604.59;;;14.01;100.00
71457;BME280;59263;48.160;11.752;2022-09-09T05:07:02;95609.16;;;13.99;100.00
71457;BME280;59263;48.160;11.752;2022-09-09T05:09:27;95610.25;;;14.04;100.00
71457;BME280;59263;48.160;11.752;2022-09-09T05:11:52;95605.19;;;14.11;100.00
71457;BME280;59263;48.160;11.752;2022-09-09T05:14:18;95608.78;;;14.10;100.00
71457;BME280;59263;48.160;11.752;2022-09-09T05:16:46;95613.34;;;14.08;100.00
71457;BME280;59263;48.160;11.752;2022-09-09T05:19:12;95621.16;;;14.08;100.00
71457;BME280;59263;48.160;11.752;2022-09-09T05:21:37;95619.53;;;14.07;100.00
71457;BME280;59263;48.160;11.752;2022-09-09T05:24:03;95621.63;;;14.12;100.00
71457;BME280;59263;48.160;11.752;2022-09-09T05:26:28;95626.66;;;14.13;100.00
71457;BME280;59263;48.160;11.752;2022-09-09T05:28:55;95630.56;;;14.17;100.00
71457;BME280;59263;48.160;11.752;2022-09-09T05:31:21;95631.78;;;14.29;100.00
71457;BME280;59263;48.160;11.752;2022-09-09T05:33:47;95641.25;;;14.22;100.00
71457;BME280;59263;48.160;11.752;2022-09-09T05:36:19;95639.63;;;14.21;100.00
71457;BME280;59263;48.160;11.752;2022-09-09T05:38:45;95632.78;;;14.28;100.00
71457;BME280;59263;48.160;11.752;2022-09-09T05:41:12;95628.09;;;14.24;100.00
71457;BME280;59263;48.160;11.752;2022-09-09T05:43:38;95636.06;;;14.22;100.00
71457;BME280;59263;48.160;11.752;2022-09-09T05:46:09;95632.59;;;14.30;100.00
71457;BME280;59263;48.160;11.752;2022-09-09T05:48:39;95628.84;;;14.33;100.00
71457;BME280;59263;48.160;11.752;2022-09-09T05:51:07;95626.53;;;14.38;100.00
71457;BME280;59263;48.160;11.752;2022-09-09T05:53:33;95627.19;;;14.40;100.00
71457;BME280;59263;48.160;11.752;2022-09-09T05:56:07;95643.44;;;14.42;100.00
71457;BME280;59263;48.160;11.752;2022-09-09T05:58:36;95638.69;;;14.45;100.00
71457;BME280;59263;48.160;11.752;2022-09-09T06:01:08;95626.16;;;14.49;100.00
71457;BME280;59263;48.160;11.752;2022-09-09T06:03:36;95632.34;;;14.48;100.00
71457;BME280;59263;48.160;11.752;2022-09-09T06:06:04;95632.03;;;14.51;100.00
71457;BME280;59263;48.160;11.752;2022-09-09T06:08:31;95632.50;;;14.55;100.00
71457;BME280;59263;48.160;11.752;2022-09-09T06:11:08;95642.72;;;14.56;100.00
71457;BME280;59263;48.160;11.752;2022-09-09T06:13:34;95643.72;;;14.55;100.00
71457;BME280;59263;48.160;11.752;2022-09-09T06:16:00;95643.38;;;14.58;100.00
71457;BME280;59263;48.160;11.752;2022-09-09T06:18:26;95641.06;;;14.63;100.00
71457;BME280;59263;48.160;11.752;2022-09-09T06:21:02;95636.31;;;14.67;100.00
71457;BME280;59263;48.160;11.752;2022-09-09T06:23:32;95643.16;;;14.68;100.00
71457;BME280;59263;48.160;11.752;2022-09-09T06:26:05;95637.94;;;14.68;100.00
71457;BME280;59263;48.160;11.752;2022-09-09T06:28:34;95645.13;;;14.66;100.00
71457;BME280;59263;48.160;11.752;2022-09-09T06:31:01;95635.97;;;14.70;100.00
71457;BME280;59263;48.160;11.752;2022-09-09T06:33:31;95637.13;;;14.67;100.00
71457;BME280;59263;48.160;11.752;2022-09-09T06:35:56;95636.03;;;14.62;100.00
71457;BME280;59263;48.160;11.752;2022-09-09T06:38:22;95648.53;;;14.66;100.00
71457;BME280;59263;48.160;11.752;2022-09-09T06:40:55;95657.97;;;14.67;100.00
71457;BME280;59263;48.160;11.752;2022-09-09T06:43:25;95657.63;;;14.70;100.00
71457;BME280;59263;48.160;11.752;2022-09-09T06:45:59;95647.53;;;14.67;100.00
71457;BME280;59263;48.160;11.752;2022-09-09T06:48:25;95644.06;;;14.75;100.00
71457;BME280;59263;48.160;11.752;2022-09-09T06:53:34;95649.28;;;14.75;100.00
71457;BME280;59263;48.160;11.752;2022-09-09T06:58:44;95654.28;;;14.85;100.00
71457;BME280;59263;48.160;11.752;2022-09-09T07:01:14;95648.72;;;14.88;100.00
71457;BME280;59263;48.160;11.752;2022-09-09T07:03:41;95646.06;;;14.96;100.00
71457;BME280;59263;48.160;11.752;2022-09-09T07:06:14;95653.94;;;14.88;100.00
71457;BME280;59263;48.160;11.752;2022-09-09T07:08:40;95652.66;;;14.84;100.00
71457;BME280;59263;48.160;11.752;2022-09-09T07:11:08;95662.28;;;14.83;100.00
71457;BME280;59263;48.160;11.752;2022-09-09T07:13:34;95658.03;;;14.82;100.00
71457;BME280;59263;48.160;11.752;2022-09-09T07:16:08;95657.06;;;14.83;100.00
71457;BME280;59263;48.160;11.752;2022-09-09T07:18:34;95652.28;;;14.87;100.00
71457;BME280;59263;48.160;11.752;2022-09-09T07:21:00;95653.59;;;14.91;100.00
71457;BME280;59263;48.160;11.752;2022-09-09T07:23:27;95653.22;;;14.94;100.00
71457;BME280;59263;48.160;11.752;2022-09-09T07:25:52;95654.50;;;14.98;100.00
71457;BME280;59263;48.160;11.752;2022-09-09T07:28:19;95665.22;;;15.03;100.00
71457;BME280;59263;48.160;11.752;2022-09-09T07:30:56;95661.47;;;15.06;100.00
71457;BME280;59263;48.160;11.752;2022-09-09T07:33:22;95673.25;;;15.16;100.00
71457;BME280;59263;48.160;11.752;2022-09-09T07:35:47;95675.25;;;15.14;100.00
71457;BME280;59263;48.160;11.752;2022-09-09T07:38:13;95690.22;;;15.12;100.00
71457;BME280;59263;48.160;11.752;2022-09-09T07:40:39;95715.94;;;15.15;100.00
71457;BME280;59263;48.160;11.752;2022-09-09T07:43:05;95728.28;;;15.21;100.00
71457;BME280;59263;48.160;11.752;2022-09-09T07:45:30;95735.41;;;15.28;100.00
71457;BME280;59263;48.160;11.752;2022-09-09T07:47:58;95719.75;;;15.28;100.00
71457;BME280;59263;48.160;11.752;2022-09-09T07:50:23;95718.34;;;15.25;100.00
71457;BME280;59263;48.160;11.752;2022-09-09T07:52:50;95718.78;;;15.29;100.00
71457;BME280;59263;48.160;11.752;2022-09-09T07:55:16;95735.38;;;15.36;100.00
71457;BME280;59263;48.160;11.752;2022-09-09T07:57:41;95733.72;;;15.35;100.00
71457;BME280;59263;48.160;11.752;2022-09-09T08:00:07;95740.25;;;15.39;100.00
71457;BME280;59263;48.160;11.752;2022-09-09T08:02:33;95739.88;;;15.42;100.00
71457;BME280;59263;48.160;11.752;2022-09-09T08:04:58;95738.53;;;15.46;100.00
71457;BME280;59263;48.160;11.752;2022-09-09T08:07:23;95739.53;;;15.45;100.00
71457;BME280;59263;48.160;11.752;2022-09-09T08:09:49;95746.81;;;15.49;100.00
71457;BME280;59263;48.160;11.752;2022-09-09T08:12:15;95746.94;;;15.56;100.00
71457;BME280;59263;48.160;11.752;2022-09-09T08:14:40;95737.41;;;15.63;100.00
71457;BME280;59263;48.160;11.752;2022-09-09T08:17:05;95745.38;;;15.70;100.00
71457;BME280;59263;48.160;11.752;2022-09-09T08:19:31;95749.38;;;15.81;100.00
71457;BME280;59263;48.160;11.752;2022-09-09T08:21:59;95736.25;;;15.89;100.00
71457;BME280;59263;48.160;11.752;2022-09-09T08:24:26;95747.47;;;15.89;100.00
71457;BME280;59263;48.160;11.752;2022-09-09T08:26:52;95745.59;;;15.98;100.00
71457;BME280;59263;48.160;11.752;2022-09-09T08:29:19;95741.66;;;16.02;100.00
71457;BME280;59263;48.160;11.752;2022-09-09T08:31:50;95743.53;;;16.08;100.00
71457;BME280;59263;48.160;11.752;2022-09-09T08:34:16;95749.75;;;16.07;98.52
71457;BME280;59263;48.160;11.752;2022-09-09T08:36:46;95756.22;;;15.96;97.23
71457;BME280;59263;48.160;11.752;2022-09-09T08:39:14;95763.94;;;15.90;97.62
71457;BME280;59263;48.160;11.752;2022-09-09T08:44:48;95767.09;;;15.85;99.67
71457;BME280;59263;48.160;11.752;2022-09-09T08:57:53;95766.88;;;15.72;100.00
71457;BME280;59263;48.160;11.752;2022-09-09T09:00:19;95762.50;;;15.72;100.00
71457;BME280;59263;48.160;11.752;2022-09-09T09:11:03;95757.47;;;15.86;100.00
71457;BME280;59263;48.160;11.752;2022-09-09T09:13:45;95768.91;;;15.85;100.00
71457;BME280;59263;48.160;11.752;2022-09-09T09:16:28;95757.13;;;15.89;100.00
71457;BME280;59263;48.160;11.752;2022-09-09T09:18:58;95757.47;;;15.86;100.00
71457;BME280;59263;48.160;11.752;2022-09-09T09:21:42;95758.09;;;15.88;100.00
71457;BME280;59263;48.160;11.752;2022-09-09T09:24:35;95749.09;;;15.90;100.00
71457;BME280;59263;48.160;11.752;2022-09-09T09:27:13;95751.69;;;15.90;100.00
71457;BME280;59263;48.160;11.752;2022-09-09T09:29:39;95746.69;;;15.89;100.00
71457;BME280;59263;48.160;11.752;2022-09-09T09:32:07;95758.09;;;15.88;100.00
71457;BME280;59263;48.160;11.752;2022-09-09T09:34:37;95750.75;;;15.91;100.00
71457;BME280;59263;48.160;11.752;2022-09-09T09:37:12;95748.75;;;15.93;100.00
71457;BME280;59263;48.160;11.752;2022-09-09T09:39:42;95754.97;;;15.92;100.00
71457;BME280;59263;48.160;11.752;2022-09-09T09:42:10;95770.16;;;15.89;100.00
71457;BME280;59263;48.160;11.752;2022-09-09T09:44:39;95767.09;;;15.85;100.00
71457;BME280;59263;48.160;11.752;2022-09-09T09:47:11;95763.34;;;15.88;100.00
71457;BME280;59263;48.160;11.752;2022-09-09T09:49:37;95756.88;;;15.99;100.00
71457;BME280;59263;48.160;11.752;2022-09-09T09:52:04;95756.69;;;16.00;100.00
71457;BME280;59263;48.160;11.752;2022-09-09T09:54:37;95770.19;;;16.04;100.00
71457;BME280;59263;48.160;11.752;2022-09-09T09:57:11;95778.66;;;16.06;100.00
71457;BME280;59263;48.160;11.752;2022-09-09T09:59:37;95771.34;;;16.01;100.00
71457;BME280;59263;48.160;11.752;2022-09-09T10:02:22;95775.97;;;16.14;100.00
71457;BME280;59263;48.160;11.752;2022-09-09T10:05:09;95769.94;;;16.13;100.00
71457;BME280;59263;48.160;11.752;2022-09-09T10:07:37;95772.81;;;16.18;100.00
71457;BME280;59263;48.160;11.752;2022-09-09T10:10:04;95763.28;;;16.26;100.00
71457;BME280;59263;48.160;11.752;2022-09-09T10:15:35;95759.31;;;16.30;100.00
71457;BME280;59263;48.160;11.752;2022-09-09T10:21:32;95763.53;;;16.31;100.00
71457;BME280;59263;48.160;11.752;2022-09-09T10:27:15;95766.69;;;16.41;98.81
71457;BME280;59263;48.160;11.752;2022-09-09T10:30:18;95765.44;;;16.37;98.68
71457;BME280;59263;48.160;11.752;2022-09-09T10:32:48;95758.25;;;16.39;98.38
71457;BME280;59263;48.160;11.752;2022-09-09T10:35:40;95755.81;;;16.37;98.74
71457;BME280;59263;48.160;11.752;2022-09-09T10:38:27;95751.38;;;16.38;97.64
71457;BME280;59263;48.160;11.752;2022-09-09T10:49:24;95764.78;;;16.50;96.50
71457;BME280;59263;48.160;11.752;2022-09-09T10:52:40;95760.41;;;16.50;95.10
71457;BME280;59263;48.160;11.752;2022-09-09T10:57:46;95766.34;;;16.74;93.76
71457;BME280;59263;48.160;11.752;2022-09-09T11:00:24;95774.00;;;16.75;93.97
71457;BME280;59263;48.160;11.752;2022-09-09T11:03:02;95771.81;;;16.79;93.14
71457;BME280;59263;48.160;11.752;2022-09-09T11:05:29;95760.91;;;16.90;91.63
71457;BME280;59263;48.160;11.752;2022-09-09T11:08:03;95762.03;;;17.17;88.15
71457;BME280;59263;48.160;11.752;2022-09-09T11:10:39;95766.69;;;17.22;86.33
71457;BME280;59263;48.160;11.752;2022-09-09T11:13:33;95768.09;;;17.24;86.35
71457;BME280;59263;48.160;11.752;2022-09-09T11:16:11;95767.31;;;17.24;86.78
71457;BME280;59263;48.160;11.752;2022-09-09T11:18:42;95777.41;;;17.27;87.04
71457;BME280;59263;48.160;11.752;2022-09-09T11:21:20;95774.91;;;17.18;86.24
71457;BME280;59263;48.160;11.752;2022-09-09T11:23:54;95766.50;;;17.23;85.19
71457;BME280;59263;48.160;11.752;2022-09-09T11:26:30;95758.59;;;17.38;84.48
71457;BME280;59263;48.160;11.752;2022-09-09T11:37:29;95757.19;;;17.35;80.95
71457;BME280;59263;48.160;11.752;2022-09-09T11:40:08;95756.25;;;17.43;81.44
71457;BME280;59263;48.160;11.752;2022-09-09T11:42:38;95757.06;;;17.44;80.89
71457;BME280;59263;48.160;11.752;2022-09-09T11:45:30;95754.22;;;17.45;78.92
71457;BME280;59263;48.160;11.752;2022-09-09T11:47:58;95747.19;;;17.46;81.47
71457;BME280;59263;48.160;11.752;2022-09-09T11:52:49;95750.13;;;17.36;82.44
71457;BME280;59263;48.160;11.752;2022-09-09T11:55:27;95756.34;;;17.35;81.19
71457;BME280;59263;48.160;11.752;2022-09-09T11:58:01;95753.50;;;17.30;81.49
71457;BME280;59263;48.160;11.752;2022-09-09T12:00:39;95755.97;;;17.38;81.96
71457;BME280;59263;48.160;11.752;2022-09-09T12:03:38;95756.47;;;17.48;80.29
71457;BME280;59263;48.160;11.752;2022-09-09T12:06:24;95755.09;;;17.52;81.12
71457;BME280;59263;48.160;11.752;2022-09-09T12:08:53;95750.38;;;17.62;81.04
71457;BME280;59263;48.160;11.752;2022-09-09T12:11:29;95751.75;;;17.58;80.91
71457;BME280;59263;48.160;11.752;2022-09-09T12:13:57;95747.91;;;17.54;80.20
71457;BME280;59263;48.160;11.752;2022-09-09T12:16:35;95751.56;;;17.60;79.18
71457;BME280;59263;48.160;11.752;2022-09-09T12:27:09;95741.75;;;17.90;78.09
71457;BME280;59263;48.160;11.752;2022-09-09T12:29:51;95743.91;;;17.80;77.46
71457;BME280;59263;48.160;11.752;2022-09-09T12:32:24;95740.47;;;17.79;76.81
71457;BME280;59263;48.160;11.752;2022-09-09T12:34:56;95739.13;;;17.69;76.69
71457;BME280;59263;48.160;11.752;2022-09-09T12:37:35;95739.13;;;17.69;78.04
71457;BME280;59263;48.160;11.752;2022-09-09T12:40:03;95733.53;;;17.72;79.00
71457;BME280;59263;48.160;11.752;2022-09-09T12:42:29;95736.91;;;17.65;79.24
71457;BME280;59263;48.160;11.752;2022-09-09T12:45:00;95729.06;;;17.65;78.90
71457;BME280;59263;48.160;11.752;2022-09-09T12:50:03;95728.25;;;17.65;79.04
71457;BME280;59263;48.160;11.752;2022-09-09T12:52:31;95724.22;;;17.62;79.85
71457;BME280;59263;48.160;11.752;2022-09-09T12:55:00;95725.25;;;17.68;80.70
71457;BME280;59263;48.160;11.752;2022-09-09T12:57:33;95727.00;;;17.82;78.90
71457;BME280;59263;48.160;11.752;2022-09-09T13:00:12;95716.81;;;17.94;78.70
71457;BME280;59263;48.160;11.752;2022-09-09T13:05:21;95708.88;;;18.16;77.71
71457;BME280;59263;48.160;11.752;2022-09-09T13:07:46;95711.97;;;18.26;77.30
71457;BME280;59263;48.160;11.752;2022-09-09T13:10:14;95711.00;;;18.33;76.84
71457;BME280;59263;48.160;11.752;2022-09-09T13:12:42;95710.19;;;18.33;75.58
71457;BME280;59263;48.160;11.752;2022-09-09T13:15:21;95697.97;;;18.47;76.54
71457;BME280;59263;48.160;11.752;2022-09-09T13:17:56;95705.06;;;18.59;74.09
71457;BME280;59263;48.160;11.752;2022-09-09T13:20:23;95694.97;;;18.56;73.79
71457;BME280;59263;48.160;11.752;2022-09-09T13:22:51;95699.00;;;18.52;75.45
71457;BME280;59263;48.160;11.752;2022-09-09T13:25:35;95694.19;;;18.56;75.40
71457;BME280;59263;48.160;11.752;2022-09-09T13:28:05;95693.78;;;18.59;75.19
71457;BME280;59263;48.160;11.752;2022-09-09T13:30:35;95682.47;;;18.52;76.02
71457;BME280;59263;48.160;11.752;2022-09-09T13:38:15;95674.78;;;18.44;75.29
71457;BME280;59263;48.160;11.752;2022-09-09T13:40:53;95675.78;;;18.49;74.54
71457;BME280;59263;48.160;11.752;2022-09-09T13:43:22;95677.66;;;18.55;73.21
71457;BME280;59263;48.160;11.752;2022-09-09T13:45:59;95675.00;;;18.49;74.05
71457;BME280;59263;48.160;11.752;2022-09-09T13:48:26;95671.91;;;18.32;74.03
71457;BME280;59263;48.160;11.752;2022-09-09T13:51:26;95670.41;;;18.16;75.37
71457;BME280;59263;48.160;11.752;2022-09-09T13:53:53;95664.75;;;18.12;75.87
71457;BME280;59263;48.160;11.752;2022-09-09T13:56:18;95664.53;;;18.07;74.82
71457;BME280;59263;48.160;11.752;2022-09-09T13:58:43;95662.91;;;18.06;74.95
71457;BME280;59263;48.160;11.752;2022-09-09T14:01:08;95665.66;;;17.92;76.29
71457;BME280;59263;48.160;11.752;2022-09-09T14:03:35;95663.59;;;17.87;76.46
71457;BME280;59263;48.160;11.752;2022-09-09T14:06:00;95663.78;;;17.85;75.91
71457;BME280;59263;48.160;11.752;2022-09-09T14:08:26;95655.38;;;17.69;74.63
71457;BME280;59263;48.160;11.752;2022-09-09T14:10:53;95664.16;;;17.54;75.52
71457;BME280;59263;48.160;11.752;2022-09-09T14:13:20;95668.16;;;17.50;76.77
71457;BME280;59263;48.160;11.752;2022-09-09T14:15:48;95658.44;;;17.44;78.02
71457;BME280;59263;48.160;11.752;2022-09-09T14:18:13;95664.06;;;17.41;77.91
71457;BME280;59263;48.160;11.752;2022-09-09T14:20:38;95663.63;;;17.37;78.80
71457;BME280;59263;48.160;11.752;2022-09-09T14:23:04;95663.25;;;17.40;79.41
71457;BME280;59263;48.160;11.752;2022-09-09T14:25:30;95665.00;;;17.33;79.64
71457;BME280;59263;48.160;11.752;2022-09-09T14:27:56;95665.56;;;17.29;80.98
71457;BME280;59263;48.160;11.752;2022-09-09T14:30:21;95660.34;;;17.29;80.89
71457;BME280;59263;48.160;11.752;2022-09-09T14:32:47;95668.19;;;17.29;81.67
71457;BME280;59263;48.160;11.752;2022-09-09T14:35:12;95669.28;;;17.41;81.38
71457;BME280;59263;48.160;11.752;2022-09-09T14:37:37;95668.03;;;17.58;80.79
71457;BME280;59263;48.160;11.752;2022-09-09T14:40:04;95667.13;;;17.73;79.64
71457;BME280;59263;48.160;11.752;2022-09-09T14:42:30;95669.63;;;17.81;78.39
71457;BME280;59263;48.160;11.752;2022-09-09T14:44:55;95675.56;;;17.75;79.23
71457;BME280;59263;48.160;11.752;2022-09-09T14:47:20;95682.56;;;17.67;79.90
71457;BME280;59263;48.160;11.752;2022-09-09T14:49:46;95683.16;;;17.63;80.78